sensor_id;sensor_type;location;lat;lon;timestamp;pressure;altitude;pressure_sealevel;temperature;humidity
41254;BME280;26987;59.928;30.306;2024-03-02T00:00:59;102578.09;;;2.21;100.00
41254;BME280;26987;59.928;30.306;2024-03-02T00:03:27;102560.09;;;2.00;100.00
41254;BME280;26987;59.928;30.306;2024-03-02T00:05:56;102555.72;;;1.99;100.00
41254;BME280;26987;59.928;30.306;2024-03-02T00:08:25;102579.13;;;2.05;100.00
41254;BME280;26987;59.928;30.306;2024-03-02T00:10:57;102570.47;;;2.03;100.00
41254;BME280;26987;59.928;30.306;2024-03-02T00:13:26;102570.34;;;1.92;100.00
41254;BME280;26987;59.928;30.306;2024-03-02T00:15:55;102559.34;;;1.85;100.00
41254;BME280;26987;59.928;30.306;2024-03-02T00:18:26;102562.41;;;1.79;100.00
41254;BME280;26987;59.928;30.306;2024-03-02T00:20:57;102573.72;;;1.81;100.00
41254;BME280;26987;59.928;30.306;2024-03-02T00:23:27;102575.31;;;1.83;100.00
41254;BME280;26987;59.928;30.306;2024-03-02T00:25:58;102573.94;;;1.91;100.00
41254;BME280;26987;59.928;30.306;2024-03-02T00:28:27;102530.31;;;1.70;100.00
41254;BME280;26987;59.928;30.306;2024-03-02T00:31:02;102570.69;;;2.00;100.00
41254;BME280;26987;59.928;30.306;2024-03-02T00:33:32;102581.56;;;2.08;100.00
41254;BME280;26987;59.928;30.306;2024-03-02T00:36:03;102558.47;;;1.97;100.00
41254;BME280;26987;59.928;30.306;2024-03-02T00:38:31;102531.63;;;1.78;100.00
41254;BME280;26987;59.928;30.306;2024-03-02T00:41:01;102578.00;;;2.09;100.00
41254;BME280;26987;59.928;30.306;2024-03-02T00:43:51;102566.13;;;2.15;100.00
41254;BME280;26987;59.928;30.306;2024-03-02T00:46:22;102557.25;;;2.03;100.00
41254;BME280;26987;59.928;30.306;2024-03-02T00:48:55;102573.53;;;2.10;100.00
41254;BME280;26987;59.928;30.306;2024-03-02T00:51:25;102574.06;;;2.15;100.00
41254;BME280;26987;59.928;30.306;2024-03-02T00:53:55;102575.75;;;2.16;100.00
41254;BME280;26987;59.928;30.306;2024-03-02T00:56:24;102551.28;;;1.99;100.00
41254;BME280;26987;59.928;30.306;2024-03-02T00:58:52;102562.84;;;2.11;100.00
41254;BME280;26987;59.928;30.306;2024-03-02T01:01:20;102565.59;;;2.23;100.00
41254;BME280;26987;59.928;30.306;2024-03-02T01:03:49;102539.22;;;2.08;100.00
41254;BME280;26987;59.928;30.306;2024-03-02T01:06:17;102558.69;;;2.20;100.00
41254;BME280;26987;59.928;30.306;2024-03-02T01:08:46;102564.22;;;2.17;100.00
41254;BME280;26987;59.928;30.306;2024-03-02T01:11:17;102571.84;;;2.22;100.00
41254;BME280;26987;59.928;30.306;2024-03-02T01:13:48;102539.66;;;2.02;100.00
41254;BME280;26987;59.928;30.306;2024-03-02T01:16:16;102564.66;;;2.24;100.00
41254;BME280;26987;59.928;30.306;2024-03-02T01:18:44;102556.81;;;2.22;100.00
41254;BME280;26987;59.928;30.306;2024-03-02T01:21:12;102573.84;;;2.31;100.00
41254;BME280;26987;59.928;30.306;2024-03-02T01:23:40;102568.44;;;2.33;100.00
41254;BME280;26987;59.928;30.306;2024-03-02T01:26:09;102567.59;;;2.32;100.00
41254;BME280;26987;59.928;30.306;2024-03-02T01:28:37;102564.00;;;2.33;100.00
41254;BME280;26987;59.928;30.306;2024-03-02T01:31:05;102572.06;;;2.32;100.00
41254;BME280;26987;59.928;30.306;2024-03-02T01:33:33;102564.22;;;2.30;100.00
41254;BME280;26987;59.928;30.306;2024-03-02T01:36:01;102568.56;;;2.31;100.00
41254;BME280;26987;59.928;30.306;2024-03-02T01:38:28;102557.00;;;2.32;100.00
41254;BME280;26987;59.928;30.306;2024-03-02T01:40:57;102559.44;;;2.35;100.00
41254;BME280;26987;59.928;30.306;2024-03-02T01:43:26;102560.69;;;2.43;100.00
41254;BME280;26987;59.928;30.306;2024-03-02T01:45:54;102555.63;;;2.39;100.00
41254;BME280;26987;59.928;30.306;2024-03-02T01:48:23;102538.47;;;2.32;100.00
41254;BME280;26987;59.928;30.306;2024-03-02T01:50:51;102550.03;;;2.31;100.00
41254;BME280;26987;59.928;30.306;2024-03-02T01:53:19;102550.56;;;2.23;100.00
41254;BME280;26987;59.928;30.306;2024-03-02T01:55:47;102559.47;;;2.22;100.00
41254;BME280;26987;59.928;30.306;2024-03-02T01:58:15;102550.66;;;2.22;100.00
41254;BME280;26987;59.928;30.306;2024-03-02T02:00:44;102552.38;;;2.23;100.00
41254;BME280;26987;59.928;30.306;2024-03-02T02:03:12;102545.25;;;2.23;100.00
41254;BME280;26987;59.928;30.306;2024-03-02T02:05:42;102529.91;;;2.16;100.00
41254;BME280;26987;59.928;30.306;2024-03-02T02:08:10;102505.56;;;1.84;100.00
41254;BME280;26987;59.928;30.306;2024-03-02T02:10:38;102559.34;;;2.24;100.00
41254;BME280;26987;59.928;30.306;2024-03-02T02:13:06;102557.78;;;2.21;100.00
41254;BME280;26987;59.928;30.306;2024-03-02T02:15:34;102569.84;;;2.25;100.00
41254;BME280;26987;59.928;30.306;2024-03-02T02:18:04;102555.75;;;2.12;100.00
41254;BME280;26987;59.928;30.306;2024-03-02T02:20:32;102562.72;;;2.13;100.00
41254;BME280;26987;59.928;30.306;2024-03-02T02:23:03;102566.97;;;2.16;100.00
41254;BME280;26987;59.928;30.306;2024-03-02T02:25:31;102572.47;;;2.25;100.00
41254;BME280;26987;59.928;30.306;2024-03-02T02:27:59;102567.41;;;2.22;100.00
41254;BME280;26987;59.928;30.306;2024-03-02T02:30:29;102574.81;;;2.30;100.00
41254;BME280;26987;59.928;30.306;2024-03-02T02:32:58;102575.75;;;2.29;100.00
41254;BME280;26987;59.928;30.306;2024-03-02T02:35:26;102556.16;;;2.19;100.00
41254;BME280;26987;59.928;30.306;2024-03-02T02:37:55;102561.56;;;2.30;100.00
41254;BME280;26987;59.928;30.306;2024-03-02T02:40:25;102574.16;;;2.39;100.00
41254;BME280;26987;59.928;30.306;2024-03-02T02:42:55;102569.72;;;2.40;100.00
41254;BME280;26987;59.928;30.306;2024-03-02T02:45:23;102569.09;;;2.36;100.00
41254;BME280;26987;59.928;30.306;2024-03-02T02:47:51;102584.31;;;2.46;100.00
41254;BME280;26987;59.928;30.306;2024-03-02T02:50:19;102584.22;;;2.47;100.00
41254;BME280;26987;59.928;30.306;2024-03-02T02:52:47;102581.06;;;2.42;100.00
41254;BME280;26987;59.928;30.306;2024-03-02T02:55:15;102582.41;;;2.48;100.00
41254;BME280;26987;59.928;30.306;2024-03-02T02:57:44;102583.16;;;2.50;100.00
41254;BME280;26987;59.928;30.306;2024-03-02T03:00:14;102585.72;;;2.51;100.00
41254;BME280;26987;59.928;30.306;2024-03-02T03:02:45;102563.34;;;2.43;100.00
41254;BME280;26987;59.928;30.306;2024-03-02T03:05:14;102572.22;;;2.55;100.00
41254;BME280;26987;59.928;30.306;2024-03-02T03:07:42;102567.69;;;2.57;100.00
41254;BME280;26987;59.928;30.306;2024-03-02T03:10:10;102552.53;;;2.46;100.00
41254;BME280;26987;59.928;30.306;2024-03-02T03:12:39;102549.34;;;2.54;100.00
41254;BME280;26987;59.928;30.306;2024-03-02T03:15:09;102561.41;;;2.58;100.00
41254;BME280;26987;59.928;30.306;2024-03-02T03:17:37;102554.44;;;2.57;100.00
41254;BME280;26987;59.928;30.306;2024-03-02T03:20:06;102556.66;;;2.63;100.00
41254;BME280;26987;59.928;30.306;2024-03-02T03:22:37;102570.94;;;2.73;100.00
41254;BME280;26987;59.928;30.306;2024-03-02T03:25:05;102572.50;;;2.76;100.00
41254;BME280;26987;59.928;30.306;2024-03-02T03:27:34;102567.53;;;2.71;100.00
41254;BME280;26987;59.928;30.306;2024-03-02T03:30:02;102567.22;;;2.76;100.00
41254;BME280;26987;59.928;30.306;2024-03-02T03:32:33;102560.97;;;2.77;100.00
41254;BME280;26987;59.928;30.306;2024-03-02T03:35:01;102549.34;;;2.67;100.00
41254;BME280;26987;59.928;30.306;2024-03-02T03:37:29;102567.22;;;2.76;100.00
41254;BME280;26987;59.928;30.306;2024-03-02T03:39:59;102567.31;;;2.74;100.00
41254;BME280;26987;59.928;30.306;2024-03-02T03:42:27;102558.75;;;2.71;100.00
41254;BME280;26987;59.928;30.306;2024-03-02T03:44:55;102538.53;;;2.57;100.00
41254;BME280;26987;59.928;30.306;2024-03-02T03:47:23;102547.34;;;2.57;100.00
41254;BME280;26987;59.928;30.306;2024-03-02T03:49:52;102560.97;;;2.64;100.00
41254;BME280;26987;59.928;30.306;2024-03-02T03:52:20;102551.69;;;2.58;100.00
41254;BME280;26987;59.928;30.306;2024-03-02T03:54:48;102560.81;;;2.54;100.00
41254;BME280;26987;59.928;30.306;2024-03-02T03:57:16;102557.94;;;2.57;100.00
41254;BME280;26987;59.928;30.306;2024-03-02T03:59:44;102548.09;;;2.46;100.00
41254;BME280;26987;59.928;30.306;2024-03-02T04:02:12;102555.50;;;2.54;100.00
41254;BME280;26987;59.928;30.306;2024-03-02T04:04:40;102561.53;;;2.56;100.00
41254;BME280;26987;59.928;30.306;2024-03-02T04:07:09;102559.63;;;2.58;100.00
41254;BME280;26987;59.928;30.306;2024-03-02T04:09:37;102553.47;;;2.58;100.00
41254;BME280;26987;59.928;30.306;2024-03-02T04:12:05;102553.56;;;2.56;100.00
41254;BME280;26987;59.928;30.306;2024-03-02T04:14:33;102557.41;;;2.52;100.00
41254;BME280;26987;59.928;30.306;2024-03-02T04:17:01;102492.03;;;2.15;100.00
41254;BME280;26987;59.928;30.306;2024-03-02T04:19:29;102552.75;;;2.56;100.00
41254;BME280;26987;59.928;30.306;2024-03-02T04:21:57;102556.13;;;2.58;100.00
41254;BME280;26987;59.928;30.306;2024-03-02T04:24:26;102550.94;;;2.56;100.00
41254;BME280;26987;59.928;30.306;2024-03-02T04:26:54;102533.78;;;2.49;100.00
41254;BME280;26987;59.928;30.306;2024-03-02T04:29:22;102556.53;;;2.64;100.00
41254;BME280;26987;59.928;30.306;2024-03-02T04:31:50;102506.38;;;2.37;100.00
41254;BME280;26987;59.928;30.306;2024-03-02T04:34:18;102550.91;;;2.69;100.00
41254;BME280;26987;59.928;30.306;2024-03-02T04:36:46;102555.91;;;2.74;100.00
41254;BME280;26987;59.928;30.306;2024-03-02T04:39:14;102542.34;;;2.65;100.00
41254;BME280;26987;59.928;30.306;2024-03-02T04:41:44;102554.81;;;2.76;100.00
41254;BME280;26987;59.928;30.306;2024-03-02T04:44:12;102554.84;;;2.63;100.00
41254;BME280;26987;59.928;30.306;2024-03-02T04:46:39;102553.25;;;2.74;100.00
41254;BME280;26987;59.928;30.306;2024-03-02T04:49:07;102566.06;;;2.80;100.00
41254;BME280;26987;59.928;30.306;2024-03-02T04:51:36;102561.91;;;2.76;100.00
41254;BME280;26987;59.928;30.306;2024-03-02T04:54:04;102563.09;;;2.72;100.00
41254;BME280;26987;59.928;30.306;2024-03-02T04:56:32;102566.59;;;2.72;100.00
41254;BME280;26987;59.928;30.306;2024-03-02T04:59:17;102567.63;;;2.70;100.00
41254;BME280;26987;59.928;30.306;2024-03-02T05:01:45;102562.59;;;2.67;100.00
41254;BME280;26987;59.928;30.306;2024-03-02T05:04:13;102556.75;;;2.61;100.00
41254;BME280;26987;59.928;30.306;2024-03-02T05:06:41;102548.38;;;2.55;100.00
41254;BME280;26987;59.928;30.306;2024-03-02T05:09:09;102555.06;;;2.60;100.00
41254;BME280;26987;59.928;30.306;2024-03-02T05:11:37;102573.03;;;2.68;100.00
41254;BME280;26987;59.928;30.306;2024-03-02T05:14:24;102563.84;;;2.74;100.00
41254;BME280;26987;59.928;30.306;2024-03-02T05:16:52;102568.28;;;2.73;100.00
41254;BME280;26987;59.928;30.306;2024-03-02T05:19:20;102561.63;;;2.68;100.00
41254;BME280;26987;59.928;30.306;2024-03-02T05:21:48;102568.91;;;2.77;100.00
41254;BME280;26987;59.928;30.306;2024-03-02T05:24:16;102569.75;;;2.77;100.00
41254;BME280;26987;59.928;30.306;2024-03-02T05:26:44;102544.25;;;2.63;100.00
41254;BME280;26987;59.928;30.306;2024-03-02T05:29:12;102556.94;;;2.71;100.00
41254;BME280;26987;59.928;30.306;2024-03-02T05:31:41;102573.03;;;2.81;100.00
41254;BME280;26987;59.928;30.306;2024-03-02T05:34:09;102542.97;;;2.56;100.00
41254;BME280;26987;59.928;30.306;2024-03-02T05:36:37;102563.94;;;2.72;100.00
41254;BME280;26987;59.928;30.306;2024-03-02T05:39:05;102574.44;;;2.74;100.00
41254;BME280;26987;59.928;30.306;2024-03-02T05:41:35;102563.72;;;2.75;100.00
41254;BME280;26987;59.928;30.306;2024-03-02T05:44:04;102564.88;;;2.71;100.00
41254;BME280;26987;59.928;30.306;2024-03-02T05:46:32;102574.75;;;2.69;100.00
41254;BME280;26987;59.928;30.306;2024-03-02T05:49:01;102552.09;;;2.65;100.00
41254;BME280;26987;59.928;30.306;2024-03-02T05:51:30;102558.00;;;2.69;100.00
41254;BME280;26987;59.928;30.306;2024-03-02T05:53:58;102567.84;;;2.80;100.00
41254;BME280;26987;59.928;30.306;2024-03-02T05:56:26;102575.91;;;2.78;100.00
41254;BME280;26987;59.928;30.306;2024-03-02T05:58:54;102569.13;;;2.74;100.00
41254;BME280;26987;59.928;30.306;2024-03-02T06:01:35;102539.19;;;2.60;100.00
41254;BME280;26987;59.928;30.306;2024-03-02T06:04:04;102575.56;;;2.83;100.00
41254;BME280;26987;59.928;30.306;2024-03-02T06:06:32;102576.28;;;2.85;100.00
41254;BME280;26987;59.928;30.306;2024-03-02T06:09:00;102573.53;;;2.86;100.00
41254;BME280;26987;59.928;30.306;2024-03-02T06:11:28;102578.13;;;2.84;100.00
41254;BME280;26987;59.928;30.306;2024-03-02T06:13:56;102552.72;;;2.69;100.00
41254;BME280;26987;59.928;30.306;2024-03-02T06:16:24;102568.34;;;2.85;100.00
41254;BME280;26987;59.928;30.306;2024-03-02T06:18:52;102571.97;;;2.84;100.00
41254;BME280;26987;59.928;30.306;2024-03-02T06:21:22;102583.31;;;2.86;100.00
41254;BME280;26987;59.928;30.306;2024-03-02T06:23:50;102580.03;;;2.82;100.00
41254;BME280;26987;59.928;30.306;2024-03-02T06:26:18;102575.38;;;2.86;100.00
41254;BME280;26987;59.928;30.306;2024-03-02T06:28:46;102573.88;;;2.82;100.00
41254;BME280;26987;59.928;30.306;2024-03-02T06:31:14;102590.06;;;2.90;100.00
41254;BME280;26987;59.928;30.306;2024-03-02T06:33:42;102576.94;;;2.88;100.00
41254;BME280;26987;59.928;30.306;2024-03-02T06:36:10;102580.44;;;2.89;100.00
41254;BME280;26987;59.928;30.306;2024-03-02T06:38:39;102563.94;;;2.72;100.00
41254;BME280;26987;59.928;30.306;2024-03-02T06:41:08;102582.78;;;2.81;100.00
41254;BME280;26987;59.928;30.306;2024-03-02T06:43:36;102580.97;;;2.81;100.00
41254;BME280;26987;59.928;30.306;2024-03-02T06:46:05;102581.69;;;2.83;100.00
41254;BME280;26987;59.928;30.306;2024-03-02T06:48:35;102577.38;;;2.82;100.00
41254;BME280;26987;59.928;30.306;2024-03-02T06:51:08;102587.41;;;2.90;100.00
41254;BME280;26987;59.928;30.306;2024-03-02T06:53:38;102583.59;;;2.94;100.00
41254;BME280;26987;59.928;30.306;2024-03-02T06:56:07;102555.78;;;2.75;100.00
41254;BME280;26987;59.928;30.306;2024-03-02T06:58:35;102590.19;;;2.88;100.00
41254;BME280;26987;59.928;30.306;2024-03-02T07:01:03;102584.25;;;2.85;100.00
41254;BME280;26987;59.928;30.306;2024-03-02T07:03:31;102576.22;;;2.73;100.00
41254;BME280;26987;59.928;30.306;2024-03-02T07:05:59;102581.09;;;2.80;100.00
41254;BME280;26987;59.928;30.306;2024-03-02T07:08:27;102575.97;;;2.89;100.00
41254;BME280;26987;59.928;30.306;2024-03-02T07:10:56;102567.09;;;2.90;100.00
41254;BME280;26987;59.928;30.306;2024-03-02T07:13:24;102572.50;;;2.89;100.00
41254;BME280;26987;59.928;30.306;2024-03-02T07:15:53;102583.31;;;2.86;100.00
41254;BME280;26987;59.928;30.306;2024-03-02T07:18:37;102579.16;;;2.82;100.00
41254;BME280;26987;59.928;30.306;2024-03-02T07:21:11;102559.09;;;2.66;100.00
41254;BME280;26987;59.928;30.306;2024-03-02T07:23:39;102578.13;;;2.84;100.00
41254;BME280;26987;59.928;30.306;2024-03-02T07:26:08;102581.28;;;2.89;100.00
41254;BME280;26987;59.928;30.306;2024-03-02T07:28:36;102572.81;;;2.84;100.00
41254;BME280;26987;59.928;30.306;2024-03-02T07:31:04;102576.66;;;2.80;100.00
41254;BME280;26987;59.928;30.306;2024-03-02T07:33:33;102567.34;;;2.61;100.00
41254;BME280;26987;59.928;30.306;2024-03-02T07:36:03;102580.88;;;2.70;100.00
41254;BME280;26987;59.928;30.306;2024-03-02T07:38:31;102584.50;;;2.69;100.00
41254;BME280;26987;59.928;30.306;2024-03-02T07:41:00;102576.44;;;2.70;100.00
41254;BME280;26987;59.928;30.306;2024-03-02T07:43:30;102565.84;;;2.70;100.00
41254;BME280;26987;59.928;30.306;2024-03-02T07:45:59;102582.66;;;2.82;100.00
41254;BME280;26987;59.928;30.306;2024-03-02T07:48:27;102573.69;;;2.72;100.00
41254;BME280;26987;59.928;30.306;2024-03-02T07:50:55;102570.53;;;2.67;100.00
41254;BME280;26987;59.928;30.306;2024-03-02T07:53:23;102587.09;;;2.82;100.00
41254;BME280;26987;59.928;30.306;2024-03-02T07:55:51;102592.31;;;2.83;100.00
41254;BME280;26987;59.928;30.306;2024-03-02T07:58:19;102590.50;;;2.84;100.00
41254;BME280;26987;59.928;30.306;2024-03-02T08:00:49;102590.94;;;2.90;100.00
41254;BME280;26987;59.928;30.306;2024-03-02T08:03:17;102580.56;;;2.87;100.00
41254;BME280;26987;59.928;30.306;2024-03-02T08:05:45;102567.00;;;2.79;100.00
41254;BME280;26987;59.928;30.306;2024-03-02T08:08:13;102570.44;;;2.93;100.00
41254;BME280;26987;59.928;30.306;2024-03-02T08:10:41;102573.63;;;2.98;100.00
41254;BME280;26987;59.928;30.306;2024-03-02T08:13:08;102584.84;;;3.01;100.00
41254;BME280;26987;59.928;30.306;2024-03-02T08:15:36;102578.50;;;2.91;100.00
41254;BME280;26987;59.928;30.306;2024-03-02T08:18:06;102581.56;;;2.98;100.00
41254;BME280;26987;59.928;30.306;2024-03-02T08:20:34;102584.72;;;3.03;100.00
41254;BME280;26987;59.928;30.306;2024-03-02T08:23:02;102581.03;;;3.06;100.00
41254;BME280;26987;59.928;30.306;2024-03-02T08:25:30;102576.31;;;3.09;100.00
41254;BME280;26987;59.928;30.306;2024-03-02T08:27:58;102584.59;;;3.18;100.00
41254;BME280;26987;59.928;30.306;2024-03-02T08:30:26;102592.97;;;3.11;100.00
41254;BME280;26987;59.928;30.306;2024-03-02T08:32:55;102541.91;;;2.72;100.00
41254;BME280;26987;59.928;30.306;2024-03-02T08:35:25;102605.38;;;3.11;100.00
41254;BME280;26987;59.928;30.306;2024-03-02T08:37:52;102595.09;;;3.06;100.00
41254;BME280;26987;59.928;30.306;2024-03-02T08:40:20;102596.41;;;3.00;100.00
41254;BME280;26987;59.928;30.306;2024-03-02T08:42:49;102607.88;;;3.01;100.00
41254;BME280;26987;59.928;30.306;2024-03-02T08:45:17;102599.69;;;3.04;100.00
41254;BME280;26987;59.928;30.306;2024-03-02T08:47:46;102601.38;;;3.05;100.00
41254;BME280;26987;59.928;30.306;2024-03-02T08:50:15;102600.19;;;3.09;100.00
41254;BME280;26987;59.928;30.306;2024-03-02T08:52:44;102602.63;;;3.12;100.00
41254;BME280;26987;59.928;30.306;2024-03-02T08:55:12;102608.56;;;3.16;100.00
41254;BME280;26987;59.928;30.306;2024-03-02T08:57:40;102607.69;;;3.15;100.00
41254;BME280;26987;59.928;30.306;2024-03-02T09:00:09;102611.94;;;3.18;100.00
41254;BME280;26987;59.928;30.306;2024-03-02T09:02:37;102601.72;;;3.25;100.00
41254;BME280;26987;59.928;30.306;2024-03-02T09:05:06;102594.97;;;3.21;100.00
41254;BME280;26987;59.928;30.306;2024-03-02T09:07:35;102605.31;;;3.24;100.00
41254;BME280;26987;59.928;30.306;2024-03-02T09:10:07;102604.38;;;3.25;100.00
41254;BME280;26987;59.928;30.306;2024-03-02T09:12:35;102597.25;;;3.25;100.00
41254;BME280;26987;59.928;30.306;2024-03-02T09:15:04;102600.66;;;3.27;100.00
41254;BME280;26987;59.928;30.306;2024-03-02T09:17:32;102607.84;;;3.38;100.00
41254;BME280;26987;59.928;30.306;2024-03-02T09:20:00;102602.44;;;3.51;100.00
41254;BME280;26987;59.928;30.306;2024-03-02T09:22:30;102598.38;;;3.59;100.00
41254;BME280;26987;59.928;30.306;2024-03-02T09:24:58;102583.41;;;3.46;100.00
41254;BME280;26987;59.928;30.306;2024-03-02T09:27:27;102601.59;;;3.51;100.00
41254;BME280;26987;59.928;30.306;2024-03-02T09:29:55;102601.78;;;3.36;100.00
41254;BME280;26987;59.928;30.306;2024-03-02T09:32:24;102577.41;;;3.31;100.00
41254;BME280;26987;59.928;30.306;2024-03-02T09:34:52;102578.03;;;3.35;100.00
41254;BME280;26987;59.928;30.306;2024-03-02T09:37:20;102577.69;;;3.39;100.00
41254;BME280;26987;59.928;30.306;2024-03-02T09:39:47;102601.38;;;3.54;100.00
41254;BME280;26987;59.928;30.306;2024-03-02T09:42:16;102600.69;;;3.63;100.00
41254;BME280;26987;59.928;30.306;2024-03-02T09:44:45;102597.09;;;3.64;100.00
41254;BME280;26987;59.928;30.306;2024-03-02T09:47:14;102595.38;;;3.63;100.00
41254;BME280;26987;59.928;30.306;2024-03-02T09:49:42;102600.00;;;3.73;100.00
41254;BME280;26987;59.928;30.306;2024-03-02T09:52:10;102572.63;;;3.72;100.00
41254;BME280;26987;59.928;30.306;2024-03-02T09:54:39;102596.44;;;3.97;100.00
41254;BME280;26987;59.928;30.306;2024-03-02T09:57:07;102563.63;;;3.86;100.00
41254;BME280;26987;59.928;30.306;2024-03-02T09:59:36;102599.28;;;4.07;100.00
41254;BME280;26987;59.928;30.306;2024-03-02T10:02:05;102589.00;;;4.13;100.00
41254;BME280;26987;59.928;30.306;2024-03-02T10:04:34;102592.16;;;4.19;100.00
41254;BME280;26987;59.928;30.306;2024-03-02T10:07:12;102564.00;;;4.16;100.00
41254;BME280;26987;59.928;30.306;2024-03-02T10:09:41;102587.09;;;4.27;100.00
41254;BME280;26987;59.928;30.306;2024-03-02T10:12:10;102581.53;;;4.19;100.00
41254;BME280;26987;59.928;30.306;2024-03-02T10:14:39;102596.63;;;4.29;100.00
41254;BME280;26987;59.928;30.306;2024-03-02T10:17:09;102588.28;;;4.34;100.00
41254;BME280;26987;59.928;30.306;2024-03-02T10:19:38;102599.78;;;4.46;100.00
41254;BME280;26987;59.928;30.306;2024-03-02T10:22:07;102597.13;;;4.46;100.00
41254;BME280;26987;59.928;30.306;2024-03-02T10:24:38;102584.19;;;4.41;100.00
41254;BME280;26987;59.928;30.306;2024-03-02T10:27:10;102582.75;;;4.49;100.00
41254;BME280;26987;59.928;30.306;2024-03-02T10:29:45;102597.50;;;4.53;100.00
41254;BME280;26987;59.928;30.306;2024-03-02T10:32:15;102585.91;;;4.43;100.00
41254;BME280;26987;59.928;30.306;2024-03-02T10:34:45;102595.78;;;4.40;100.00
41254;BME280;26987;59.928;30.306;2024-03-02T10:37:14;102595.78;;;4.52;100.00
41254;BME280;26987;59.928;30.306;2024-03-02T10:39:45;102584.22;;;4.53;100.00
41254;BME280;26987;59.928;30.306;2024-03-02T10:42:14;102592.91;;;4.66;100.00
41254;BME280;26987;59.928;30.306;2024-03-02T10:44:42;102555.09;;;4.40;100.00
41254;BME280;26987;59.928;30.306;2024-03-02T10:47:13;102589.03;;;4.59;100.00
41254;BME280;26987;59.928;30.306;2024-03-02T10:49:42;102597.63;;;4.51;100.00
41254;BME280;26987;59.928;30.306;2024-03-02T10:52:11;102590.00;;;4.47;100.00
41254;BME280;26987;59.928;30.306;2024-03-02T10:54:38;102597.13;;;4.46;100.00
41254;BME280;26987;59.928;30.306;2024-03-02T10:57:07;102575.03;;;4.46;100.00
41254;BME280;26987;59.928;30.306;2024-03-02T10:59:46;102574.78;;;4.49;100.00
41254;BME280;26987;59.928;30.306;2024-03-02T11:02:20;102586.38;;;4.59;100.00
41254;BME280;26987;59.928;30.306;2024-03-02T11:04:49;102577.44;;;4.60;100.00
41254;BME280;26987;59.928;30.306;2024-03-02T11:07:19;102583.72;;;4.71;100.00
41254;BME280;26987;59.928;30.306;2024-03-02T11:09:54;102585.38;;;4.72;100.00
41254;BME280;26987;59.928;30.306;2024-03-02T11:12:28;102579.97;;;4.62;100.00
41254;BME280;26987;59.928;30.306;2024-03-02T11:14:58;102580.56;;;4.54;100.00
41254;BME280;26987;59.928;30.306;2024-03-02T11:17:28;102587.34;;;4.47;100.00
41254;BME280;26987;59.928;30.306;2024-03-02T11:19:57;102578.53;;;4.35;100.00
41254;BME280;26987;59.928;30.306;2024-03-02T11:22:26;102589.03;;;4.48;100.00
41254;BME280;26987;59.928;30.306;2024-03-02T11:24:54;102586.50;;;4.46;100.00
41254;BME280;26987;59.928;30.306;2024-03-02T11:30:51;102588.16;;;4.70;100.00
41254;BME280;26987;59.928;30.306;2024-03-02T11:33:27;102585.41;;;4.60;100.00
41254;BME280;26987;59.928;30.306;2024-03-02T11:35:57;102588.19;;;4.59;100.00
41254;BME280;26987;59.928;30.306;2024-03-02T11:38:29;102588.53;;;4.54;100.00
41254;BME280;26987;59.928;30.306;2024-03-02T11:40:59;102593.88;;;4.54;100.00
41254;BME280;26987;59.928;30.306;2024-03-02T11:43:38;102577.06;;;4.53;100.00
41254;BME280;26987;59.928;30.306;2024-03-02T11:46:10;102598.94;;;4.57;100.00
41254;BME280;26987;59.928;30.306;2024-03-02T11:48:41;102585.16;;;4.52;100.00
41254;BME280;26987;59.928;30.306;2024-03-02T11:51:09;102585.88;;;4.54;100.00
41254;BME280;26987;59.928;30.306;2024-03-02T11:53:39;102556.91;;;4.39;100.00
41254;BME280;26987;59.928;30.306;2024-03-02T11:56:09;102564.53;;;4.44;100.00
41254;BME280;26987;59.928;30.306;2024-03-02T11:58:39;102598.44;;;4.63;100.00
41254;BME280;26987;59.928;30.306;2024-03-02T12:01:07;102598.09;;;4.68;100.00
41254;BME280;26987;59.928;30.306;2024-03-02T12:03:35;102596.25;;;4.69;100.00
41254;BME280;26987;59.928;30.306;2024-03-02T12:06:08;102594.56;;;4.79;100.00
41254;BME280;26987;59.928;30.306;2024-03-02T12:08:36;102588.91;;;4.72;100.00
41254;BME280;26987;59.928;30.306;2024-03-02T12:11:05;102585.53;;;4.59;100.00
41254;BME280;26987;59.928;30.306;2024-03-02T12:13:34;102580.31;;;4.69;100.00
41254;BME280;26987;59.928;30.306;2024-03-02T12:16:02;102584.56;;;4.71;100.00
41254;BME280;26987;59.928;30.306;2024-03-02T12:18:30;102579.63;;;4.66;100.00
41254;BME280;26987;59.928;30.306;2024-03-02T12:20:57;102586.50;;;4.69;100.00
41254;BME280;26987;59.928;30.306;2024-03-02T12:23:27;102577.78;;;4.67;100.00
41254;BME280;26987;59.928;30.306;2024-03-02T12:25:55;102555.22;;;4.50;100.00
41254;BME280;26987;59.928;30.306;2024-03-02T12:28:23;102581.53;;;4.64;100.00
41254;BME280;26987;59.928;30.306;2024-03-02T12:30:51;102587.34;;;4.70;100.00
41254;BME280;26987;59.928;30.306;2024-03-02T12:33:19;102582.97;;;4.69;100.00
41254;BME280;26987;59.928;30.306;2024-03-02T12:35:49;102580.81;;;4.74;100.00
41254;BME280;26987;59.928;30.306;2024-03-02T12:38:17;102583.94;;;4.79;100.00
41254;BME280;26987;59.928;30.306;2024-03-02T12:40:49;102580.19;;;4.82;100.00
41254;BME280;26987;59.928;30.306;2024-03-02T12:43:17;102577.66;;;4.80;100.00
41254;BME280;26987;59.928;30.306;2024-03-02T12:45:45;102581.53;;;4.76;100.00
41254;BME280;26987;59.928;30.306;2024-03-02T12:48:13;102585.63;;;4.80;100.00
41254;BME280;26987;59.928;30.306;2024-03-02T12:50:42;102579.25;;;4.71;100.00
41254;BME280;26987;59.928;30.306;2024-03-02T12:53:14;102582.59;;;4.73;100.00